sensor_id;sensor_type;location;lat;lon;timestamp;P1;durP1;ratioP1;P2;durP2;ratioP2
38262;SDS011;24054;50.128;19.730;2022-11-09T00:01:02;44.03;;;29.70;;
38262;SDS011;24054;50.128;19.730;2022-11-09T00:03:31;42.80;;;29.98;;
38262;SDS011;24054;50.128;19.730;2022-11-09T00:05:59;44.78;;;30.15;;
38262;SDS011;24054;50.128;19.730;2022-11-09T00:08:26;41.00;;;28.63;;
38262;SDS011;24054;50.128;19.730;2022-11-09T00:10:54;41.85;;;29.42;;
38262;SDS011;24054;50.128;19.730;2022-11-09T00:13:21;43.75;;;30.17;;
38262;SDS011;24054;50.128;19.730;2022-11-09T00:15:48;42.75;;;29.35;;
38262;SDS011;24054;50.128;19.730;2022-11-09T00:18:15;42.05;;;29.85;;
38262;SDS011;24054;50.128;19.730;2022-11-09T00:20:43;45.13;;;29.92;;
38262;SDS011;24054;50.128;19.730;2022-11-09T00:23:10;44.53;;;30.25;;
38262;SDS011;24054;50.128;19.730;2022-11-09T00:25:37;39.33;;;28.58;;
38262;SDS011;24054;50.128;19.730;2022-11-09T00:28:04;44.75;;;29.65;;
38262;SDS011;24054;50.128;19.730;2022-11-09T00:30:31;44.78;;;30.45;;
38262;SDS011;24054;50.128;19.730;2022-11-09T00:32:58;41.72;;;29.25;;
38262;SDS011;24054;50.128;19.730;2022-11-09T00:35:25;36.72;;;27.52;;
38262;SDS011;24054;50.128;19.730;2022-11-09T00:37:54;38.75;;;27.95;;
38262;SDS011;24054;50.128;19.730;2022-11-09T00:40:21;40.22;;;28.05;;
38262;SDS011;24054;50.128;19.730;2022-11-09T00:42:48;40.95;;;28.23;;
38262;SDS011;24054;50.128;19.730;2022-11-09T00:45:15;37.83;;;26.80;;
38262;SDS011;24054;50.128;19.730;2022-11-09T00:47:43;42.50;;;27.80;;
38262;SDS011;24054;50.128;19.730;2022-11-09T00:50:10;38.43;;;27.07;;
38262;SDS011;24054;50.128;19.730;2022-11-09T00:52:37;39.28;;;26.70;;
38262;SDS011;24054;50.128;19.730;2022-11-09T00:55:05;40.30;;;26.77;;
38262;SDS011;24054;50.128;19.730;2022-11-09T00:57:33;36.55;;;27.10;;
38262;SDS011;24054;50.128;19.730;2022-11-09T01:00:00;38.58;;;26.48;;
38262;SDS011;24054;50.128;19.730;2022-11-09T01:02:27;37.83;;;27.17;;
38262;SDS011;24054;50.128;19.730;2022-11-09T01:04:53;39.67;;;26.63;;
38262;SDS011;24054;50.128;19.730;2022-11-09T01:07:20;37.08;;;27.67;;
38262;SDS011;24054;50.128;19.730;2022-11-09T01:09:47;37.85;;;26.80;;
38262;SDS011;24054;50.128;19.730;2022-11-09T01:12:16;40.05;;;27.13;;
38262;SDS011;24054;50.128;19.730;2022-11-09T01:14:43;39.30;;;27.20;;
38262;SDS011;24054;50.128;19.730;2022-11-09T01:17:10;33.65;;;25.45;;
38262;SDS011;24054;50.128;19.730;2022-11-09T01:19:37;37.13;;;26.55;;
38262;SDS011;24054;50.128;19.730;2022-11-09T01:22:04;38.42;;;26.73;;
38262;SDS011;24054;50.128;19.730;2022-11-09T01:24:31;37.45;;;27.08;;
38262;SDS011;24054;50.128;19.730;2022-11-09T01:26:58;36.60;;;26.00;;
38262;SDS011;24054;50.128;19.730;2022-11-09T01:29:26;33.13;;;24.60;;
38262;SDS011;24054;50.128;19.730;2022-11-09T01:31:53;36.88;;;26.38;;
38262;SDS011;24054;50.128;19.730;2022-11-09T01:34:21;34.38;;;25.25;;
38262;SDS011;24054;50.128;19.730;2022-11-09T01:36:48;36.33;;;26.30;;
38262;SDS011;24054;50.128;19.730;2022-11-09T01:39:15;35.70;;;26.77;;
38262;SDS011;24054;50.128;19.730;2022-11-09T01:41:43;36.83;;;26.00;;
38262;SDS011;24054;50.128;19.730;2022-11-09T01:44:11;35.53;;;25.15;;
38262;SDS011;24054;50.128;19.730;2022-11-09T01:46:44;35.72;;;25.35;;
38262;SDS011;24054;50.128;19.730;2022-11-09T01:49:18;35.13;;;24.58;;
38262;SDS011;24054;50.128;19.730;2022-11-09T01:51:50;36.70;;;25.40;;
38262;SDS011;24054;50.128;19.730;2022-11-09T01:54:23;34.20;;;24.67;;
38262;SDS011;24054;50.128;19.730;2022-11-09T01:56:55;33.65;;;25.70;;
38262;SDS011;24054;50.128;19.730;2022-11-09T01:59:27;36.22;;;26.02;;
38262;SDS011;24054;50.128;19.730;2022-11-09T02:01:58;36.00;;;25.63;;
38262;SDS011;24054;50.128;19.730;2022-11-09T02:04:26;34.95;;;24.08;;
38262;SDS011;24054;50.128;19.730;2022-11-09T02:06:57;34.13;;;23.92;;
38262;SDS011;24054;50.128;19.730;2022-11-09T02:09:26;32.78;;;24.23;;
38262;SDS011;24054;50.128;19.730;2022-11-09T02:11:56;33.88;;;24.08;;
38262;SDS011;24054;50.128;19.730;2022-11-09T02:14:24;32.75;;;23.42;;
38262;SDS011;24054;50.128;19.730;2022-11-09T02:16:53;34.47;;;23.73;;
38262;SDS011;24054;50.128;19.730;2022-11-09T02:19:22;33.92;;;24.52;;
38262;SDS011;24054;50.128;19.730;2022-11-09T02:21:50;34.83;;;23.85;;
38262;SDS011;24054;50.128;19.730;2022-11-09T02:24:17;34.28;;;24.45;;
38262;SDS011;24054;50.128;19.730;2022-11-09T02:26:46;35.60;;;23.83;;
38262;SDS011;24054;50.128;19.730;2022-11-09T02:29:15;34.38;;;24.02;;
38262;SDS011;24054;50.128;19.730;2022-11-09T02:31:47;36.00;;;23.92;;
38262;SDS011;24054;50.128;19.730;2022-11-09T02:34:18;32.20;;;23.55;;
38262;SDS011;24054;50.128;19.730;2022-11-09T02:36:46;33.63;;;23.20;;
38262;SDS011;24054;50.128;19.730;2022-11-09T02:39:15;31.83;;;24.42;;
38262;SDS011;24054;50.128;19.730;2022-11-09T02:41:46;32.53;;;23.60;;
38262;SDS011;24054;50.128;19.730;2022-11-09T02:44:15;32.10;;;23.88;;
38262;SDS011;24054;50.128;19.730;2022-11-09T02:46:44;34.28;;;23.42;;
38262;SDS011;24054;50.128;19.730;2022-11-09T02:49:11;32.15;;;22.23;;
38262;SDS011;24054;50.128;19.730;2022-11-09T02:51:38;30.55;;;22.65;;
38262;SDS011;24054;50.128;19.730;2022-11-09T02:54:05;30.90;;;22.95;;
38262;SDS011;24054;50.128;19.730;2022-11-09T02:56:33;31.88;;;21.90;;
38262;SDS011;24054;50.128;19.730;2022-11-09T02:59:00;30.80;;;22.77;;
38262;SDS011;24054;50.128;19.730;2022-11-09T03:01:28;31.27;;;22.90;;
38262;SDS011;24054;50.128;19.730;2022-11-09T03:03:55;30.48;;;22.52;;
38262;SDS011;24054;50.128;19.730;2022-11-09T03:06:22;33.80;;;23.83;;
38262;SDS011;24054;50.128;19.730;2022-11-09T03:08:58;33.03;;;22.58;;
38262;SDS011;24054;50.128;19.730;2022-11-09T03:11:26;32.25;;;22.45;;
38262;SDS011;24054;50.128;19.730;2022-11-09T03:13:54;32.70;;;23.38;;
38262;SDS011;24054;50.128;19.730;2022-11-09T03:16:21;30.27;;;21.42;;
38262;SDS011;24054;50.128;19.730;2022-11-09T03:18:48;28.27;;;21.00;;
38262;SDS011;24054;50.128;19.730;2022-11-09T03:21:16;26.60;;;20.55;;
38262;SDS011;24054;50.128;19.730;2022-11-09T03:23:43;29.65;;;22.70;;
38262;SDS011;24054;50.128;19.730;2022-11-09T03:26:10;30.40;;;21.85;;
38262;SDS011;24054;50.128;19.730;2022-11-09T03:28:37;30.98;;;22.05;;
38262;SDS011;24054;50.128;19.730;2022-11-09T03:31:06;28.25;;;21.25;;
38262;SDS011;24054;50.128;19.730;2022-11-09T03:33:33;28.02;;;20.80;;
38262;SDS011;24054;50.128;19.730;2022-11-09T03:36:01;27.80;;;20.80;;
38262;SDS011;24054;50.128;19.730;2022-11-09T03:38:28;27.50;;;21.23;;
38262;SDS011;24054;50.128;19.730;2022-11-09T03:40:55;31.52;;;21.38;;
38262;SDS011;24054;50.128;19.730;2022-11-09T03:45:50;27.15;;;20.67;;
38262;SDS011;24054;50.128;19.730;2022-11-09T03:48:19;27.77;;;20.60;;
38262;SDS011;24054;50.128;19.730;2022-11-09T03:50:45;27.00;;;20.58;;
38262;SDS011;24054;50.128;19.730;2022-11-09T03:53:12;28.98;;;20.25;;
38262;SDS011;24054;50.128;19.730;2022-11-09T03:55:39;28.92;;;21.08;;
38262;SDS011;24054;50.128;19.730;2022-11-09T03:58:08;28.27;;;20.48;;
38262;SDS011;24054;50.128;19.730;2022-11-09T04:00:36;29.13;;;20.60;;
38262;SDS011;24054;50.128;19.730;2022-11-09T04:03:03;26.40;;;20.10;;
38262;SDS011;24054;50.128;19.730;2022-11-09T04:05:31;26.45;;;20.77;;
38262;SDS011;24054;50.128;19.730;2022-11-09T04:07:58;26.00;;;20.17;;
38262;SDS011;24054;50.128;19.730;2022-11-09T04:10:25;25.20;;;19.23;;
38262;SDS011;24054;50.128;19.730;2022-11-09T04:12:52;26.48;;;19.75;;
38262;SDS011;24054;50.128;19.730;2022-11-09T04:15:20;25.02;;;19.35;;
38262;SDS011;24054;50.128;19.730;2022-11-09T04:17:53;24.80;;;19.40;;
38262;SDS011;24054;50.128;19.730;2022-11-09T04:20:20;29.30;;;20.50;;
38262;SDS011;24054;50.128;19.730;2022-11-09T04:22:53;26.65;;;19.67;;
38262;SDS011;24054;50.128;19.730;2022-11-09T04:25:22;25.45;;;18.80;;
38262;SDS011;24054;50.128;19.730;2022-11-09T04:27:52;24.95;;;18.90;;
38262;SDS011;24054;50.128;19.730;2022-11-09T04:30:20;24.25;;;19.17;;
38262;SDS011;24054;50.128;19.730;2022-11-09T04:32:47;25.48;;;19.50;;
38262;SDS011;24054;50.128;19.730;2022-11-09T04:35:14;25.30;;;18.70;;
38262;SDS011;24054;50.128;19.730;2022-11-09T04:37:41;24.55;;;18.65;;
38262;SDS011;24054;50.128;19.730;2022-11-09T04:40:10;25.25;;;18.35;;
38262;SDS011;24054;50.128;19.730;2022-11-09T04:42:38;25.15;;;18.65;;
38262;SDS011;24054;50.128;19.730;2022-11-09T04:45:05;25.92;;;18.80;;
38262;SDS011;24054;50.128;19.730;2022-11-09T04:47:33;22.23;;;17.48;;
38262;SDS011;24054;50.128;19.730;2022-11-09T04:50:00;24.90;;;18.95;;
38262;SDS011;24054;50.128;19.730;2022-11-09T04:52:27;22.58;;;17.95;;
38262;SDS011;24054;50.128;19.730;2022-11-09T04:54:54;27.50;;;18.73;;
38262;SDS011;24054;50.128;19.730;2022-11-09T04:57:22;25.52;;;18.55;;
38262;SDS011;24054;50.128;19.730;2022-11-09T04:59:49;25.90;;;18.05;;
38262;SDS011;24054;50.128;19.730;2022-11-09T05:02:16;23.17;;;18.60;;
38262;SDS011;24054;50.128;19.730;2022-11-09T05:04:43;24.25;;;18.00;;
38262;SDS011;24054;50.128;19.730;2022-11-09T05:07:10;23.65;;;17.45;;
38262;SDS011;24054;50.128;19.730;2022-11-09T05:09:37;24.58;;;18.65;;
38262;SDS011;24054;50.128;19.730;2022-11-09T05:12:04;23.88;;;17.83;;
38262;SDS011;24054;50.128;19.730;2022-11-09T05:14:33;23.75;;;18.42;;
38262;SDS011;24054;50.128;19.730;2022-11-09T05:17:00;21.75;;;17.75;;
38262;SDS011;24054;50.128;19.730;2022-11-09T05:19:26;25.80;;;17.45;;
38262;SDS011;24054;50.128;19.730;2022-11-09T05:21:53;21.73;;;17.65;;
38262;SDS011;24054;50.128;19.730;2022-11-09T05:24:20;24.00;;;17.63;;
38262;SDS011;24054;50.128;19.730;2022-11-09T05:26:46;24.70;;;17.95;;
38262;SDS011;24054;50.128;19.730;2022-11-09T05:29:14;21.73;;;17.05;;
38262;SDS011;24054;50.128;19.730;2022-11-09T05:31:42;22.73;;;17.10;;
38262;SDS011;24054;50.128;19.730;2022-11-09T05:34:11;24.25;;;17.58;;
38262;SDS011;24054;50.128;19.730;2022-11-09T05:36:41;24.02;;;17.70;;
38262;SDS011;24054;50.128;19.730;2022-11-09T05:39:08;22.42;;;17.05;;
38262;SDS011;24054;50.128;19.730;2022-11-09T05:41:35;21.88;;;16.45;;
38262;SDS011;24054;50.128;19.730;2022-11-09T05:44:02;22.70;;;17.35;;
38262;SDS011;24054;50.128;19.730;2022-11-09T05:46:29;21.77;;;16.23;;
38262;SDS011;24054;50.128;19.730;2022-11-09T05:48:59;22.50;;;17.40;;
38262;SDS011;24054;50.128;19.730;2022-11-09T05:51:26;20.30;;;16.27;;
38262;SDS011;24054;50.128;19.730;2022-11-09T05:53:53;21.92;;;16.50;;
38262;SDS011;24054;50.128;19.730;2022-11-09T05:56:20;21.10;;;16.42;;
38262;SDS011;24054;50.128;19.730;2022-11-09T05:58:47;20.75;;;16.48;;
38262;SDS011;24054;50.128;19.730;2022-11-09T06:01:15;24.02;;;17.27;;
38262;SDS011;24054;50.128;19.730;2022-11-09T06:03:43;22.45;;;17.38;;
38262;SDS011;24054;50.128;19.730;2022-11-09T06:06:13;23.15;;;16.13;;
38262;SDS011;24054;50.128;19.730;2022-11-09T06:08:41;21.38;;;16.83;;
38262;SDS011;24054;50.128;19.730;2022-11-09T06:11:08;23.23;;;17.30;;
38262;SDS011;24054;50.128;19.730;2022-11-09T06:13:36;21.45;;;15.45;;
38262;SDS011;24054;50.128;19.730;2022-11-09T06:16:04;21.58;;;15.95;;
38262;SDS011;24054;50.128;19.730;2022-11-09T06:18:32;27.52;;;17.50;;
38262;SDS011;24054;50.128;19.730;2022-11-09T06:21:02;26.77;;;15.75;;
38262;SDS011;24054;50.128;19.730;2022-11-09T06:23:31;22.60;;;14.35;;
38262;SDS011;24054;50.128;19.730;2022-11-09T06:26:02;27.75;;;16.02;;
38262;SDS011;24054;50.128;19.730;2022-11-09T06:28:30;22.33;;;15.30;;
38262;SDS011;24054;50.128;19.730;2022-11-09T06:30:58;23.92;;;15.63;;
38262;SDS011;24054;50.128;19.730;2022-11-09T06:33:28;24.65;;;14.88;;
38262;SDS011;24054;50.128;19.730;2022-11-09T06:35:56;36.05;;;18.25;;
38262;SDS011;24054;50.128;19.730;2022-11-09T06:38:23;20.35;;;14.82;;
38262;SDS011;24054;50.128;19.730;2022-11-09T06:40:53;24.73;;;15.93;;
38262;SDS011;24054;50.128;19.730;2022-11-09T06:43:21;20.17;;;15.07;;
38262;SDS011;24054;50.128;19.730;2022-11-09T06:45:49;21.88;;;14.60;;
38262;SDS011;24054;50.128;19.730;2022-11-09T06:48:16;26.08;;;14.30;;
38262;SDS011;24054;50.128;19.730;2022-11-09T06:50:44;25.83;;;15.90;;
38262;SDS011;24054;50.128;19.730;2022-11-09T06:53:12;24.13;;;15.55;;
38262;SDS011;24054;50.128;19.730;2022-11-09T06:55:40;22.58;;;15.35;;
38262;SDS011;24054;50.128;19.730;2022-11-09T07:00:40;27.10;;;15.27;;
38262;SDS011;24054;50.128;19.730;2022-11-09T07:03:07;33.30;;;18.67;;
38262;SDS011;24054;50.128;19.730;2022-11-09T07:05:39;50.35;;;23.13;;
38262;SDS011;24054;50.128;19.730;2022-11-09T07:08:06;62.75;;;29.27;;
38262;SDS011;24054;50.128;19.730;2022-11-09T07:10:33;95.88;;;42.13;;
38262;SDS011;24054;50.128;19.730;2022-11-09T07:13:00;106.95;;;43.33;;
38262;SDS011;24054;50.128;19.730;2022-11-09T07:15:29;109.70;;;46.55;;
38262;SDS011;24054;50.128;19.730;2022-11-09T07:18:00;110.68;;;45.13;;
38262;SDS011;24054;50.128;19.730;2022-11-09T07:20:28;116.40;;;51.53;;
38262;SDS011;24054;50.128;19.730;2022-11-09T07:22:55;131.38;;;54.13;;
38262;SDS011;24054;50.128;19.730;2022-11-09T07:25:22;128.63;;;51.03;;
38262;SDS011;24054;50.128;19.730;2022-11-09T07:27:51;122.18;;;54.08;;
38262;SDS011;24054;50.128;19.730;2022-11-09T07:30:20;124.78;;;53.78;;
38262;SDS011;24054;50.128;19.730;2022-11-09T07:32:49;137.63;;;57.75;;
38262;SDS011;24054;50.128;19.730;2022-11-09T07:35:16;139.90;;;57.85;;
38262;SDS011;24054;50.128;19.730;2022-11-09T07:37:43;128.68;;;55.47;;
38262;SDS011;24054;50.128;19.730;2022-11-09T07:40:10;129.65;;;57.05;;
38262;SDS011;24054;50.128;19.730;2022-11-09T07:42:38;136.85;;;56.17;;
38262;SDS011;24054;50.128;19.730;2022-11-09T07:45:06;131.10;;;53.78;;
38262;SDS011;24054;50.128;19.730;2022-11-09T07:47:33;122.40;;;55.57;;
38262;SDS011;24054;50.128;19.730;2022-11-09T07:50:02;125.85;;;53.50;;
38262;SDS011;24054;50.128;19.730;2022-11-09T07:54:56;113.03;;;50.50;;
38262;SDS011;24054;50.128;19.730;2022-11-09T07:57:23;123.55;;;51.80;;
38262;SDS011;24054;50.128;19.730;2022-11-09T07:59:50;118.63;;;51.88;;
38262;SDS011;24054;50.128;19.730;2022-11-09T08:02:17;114.10;;;51.63;;
38262;SDS011;24054;50.128;19.730;2022-11-09T08:04:44;110.63;;;51.40;;
38262;SDS011;24054;50.128;19.730;2022-11-09T08:07:13;112.03;;;52.17;;
38262;SDS011;24054;50.128;19.730;2022-11-09T08:09:40;102.28;;;48.55;;
38262;SDS011;24054;50.128;19.730;2022-11-09T08:12:07;101.88;;;48.92;;
38262;SDS011;24054;50.128;19.730;2022-11-09T08:14:34;96.53;;;48.28;;
38262;SDS011;24054;50.128;19.730;2022-11-09T08:17:01;110.20;;;46.75;;
38262;SDS011;24054;50.128;19.730;2022-11-09T08:19:28;103.75;;;47.78;;
38262;SDS011;24054;50.128;19.730;2022-11-09T08:21:55;103.03;;;49.17;;
38262;SDS011;24054;50.128;19.730;2022-11-09T08:24:23;98.28;;;45.97;;
38262;SDS011;24054;50.128;19.730;2022-11-09T08:26:50;97.40;;;46.00;;
38262;SDS011;24054;50.128;19.730;2022-11-09T08:29:17;91.60;;;44.42;;
38262;SDS011;24054;50.128;19.730;2022-11-09T08:31:44;96.45;;;45.90;;
38262;SDS011;24054;50.128;19.730;2022-11-09T08:34:14;88.75;;;43.40;;
38262;SDS011;24054;50.128;19.730;2022-11-09T08:36:41;93.28;;;44.92;;
38262;SDS011;24054;50.128;19.730;2022-11-09T08:39:08;89.47;;;43.33;;
38262;SDS011;24054;50.128;19.730;2022-11-09T08:41:37;88.53;;;42.67;;
38262;SDS011;24054;50.128;19.730;2022-11-09T08:44:04;97.60;;;45.08;;
38262;SDS011;24054;50.128;19.730;2022-11-09T08:46:31;92.25;;;44.03;;
38262;SDS011;24054;50.128;19.730;2022-11-09T08:48:58;92.40;;;44.40;;
38262;SDS011;24054;50.128;19.730;2022-11-09T08:51:25;85.07;;;41.95;;
38262;SDS011;24054;50.128;19.730;2022-11-09T08:53:54;85.80;;;44.05;;
38262;SDS011;24054;50.128;19.730;2022-11-09T08:56:21;84.32;;;40.97;;
38262;SDS011;24054;50.128;19.730;2022-11-09T08:58:49;86.22;;;40.90;;
38262;SDS011;24054;50.128;19.730;2022-11-09T09:01:16;85.28;;;41.90;;
38262;SDS011;24054;50.128;19.730;2022-11-09T09:03:43;79.57;;;41.20;;
38262;SDS011;24054;50.128;19.730;2022-11-09T09:06:11;75.55;;;39.10;;
38262;SDS011;24054;50.128;19.730;2022-11-09T09:08:41;69.20;;;37.55;;
38262;SDS011;24054;50.128;19.730;2022-11-09T09:11:08;76.53;;;38.75;;
38262;SDS011;24054;50.128;19.730;2022-11-09T09:13:36;74.78;;;38.47;;
38262;SDS011;24054;50.128;19.730;2022-11-09T09:16:11;74.82;;;37.70;;
38262;SDS011;24054;50.128;19.730;2022-11-09T09:18:39;72.05;;;36.35;;
38262;SDS011;24054;50.128;19.730;2022-11-09T09:21:07;71.82;;;36.80;;
38262;SDS011;24054;50.128;19.730;2022-11-09T09:23:35;72.30;;;35.15;;
38262;SDS011;24054;50.128;19.730;2022-11-09T09:26:02;64.43;;;34.20;;
38262;SDS011;24054;50.128;19.730;2022-11-09T09:28:29;58.70;;;32.50;;
38262;SDS011;24054;50.128;19.730;2022-11-09T09:30:57;60.50;;;32.88;;
38262;SDS011;24054;50.128;19.730;2022-11-09T09:33:26;63.05;;;33.40;;
38262;SDS011;24054;50.128;19.730;2022-11-09T09:35:54;59.55;;;31.58;;
38262;SDS011;24054;50.128;19.730;2022-11-09T09:38:22;59.43;;;32.43;;
38262;SDS011;24054;50.128;19.730;2022-11-09T09:40:53;58.15;;;31.38;;
38262;SDS011;24054;50.128;19.730;2022-11-09T09:43:25;60.13;;;31.60;;
38262;SDS011;24054;50.128;19.730;2022-11-09T09:45:56;57.88;;;30.52;;
38262;SDS011;24054;50.128;19.730;2022-11-09T09:48:29;57.03;;;30.30;;
38262;SDS011;24054;50.128;19.730;2022-11-09T09:51:03;57.47;;;31.67;;
38262;SDS011;24054;50.128;19.730;2022-11-09T09:53:36;57.38;;;31.67;;
38262;SDS011;24054;50.128;19.730;2022-11-09T09:56:10;59.08;;;31.35;;
38262;SDS011;24054;50.128;19.730;2022-11-09T09:58:40;62.97;;;30.70;;
38262;SDS011;24054;50.128;19.730;2022-11-09T10:01:12;51.92;;;29.17;;
38262;SDS011;24054;50.128;19.730;2022-11-09T10:03:45;52.60;;;30.05;;
38262;SDS011;24054;50.128;19.730;2022-11-09T10:06:19;57.63;;;29.85;;
38262;SDS011;24054;50.128;19.730;2022-11-09T10:08:57;53.80;;;27.70;;
38262;SDS011;24054;50.128;19.730;2022-11-09T10:11:40;55.88;;;29.20;;
38262;SDS011;24054;50.128;19.730;2022-11-09T10:17:19;49.03;;;27.92;;
38262;SDS011;24054;50.128;19.730;2022-11-09T10:20:01;50.08;;;26.30;;
38262;SDS011;24054;50.128;19.730;2022-11-09T10:22:39;45.38;;;26.98;;
38262;SDS011;24054;50.128;19.730;2022-11-09T10:25:14;49.78;;;27.10;;
38262;SDS011;24054;50.128;19.730;2022-11-09T10:27:47;49.42;;;26.85;;
38262;SDS011;24054;50.128;19.730;2022-11-09T10:30:18;45.85;;;25.45;;
38262;SDS011;24054;50.128;19.730;2022-11-09T10:32:47;39.65;;;24.73;;
38262;SDS011;24054;50.128;19.730;2022-11-09T10:35:19;44.97;;;27.15;;
38262;SDS011;24054;50.128;19.730;2022-11-09T10:37:49;45.08;;;24.73;;
38262;SDS011;24054;50.128;19.730;2022-11-09T10:40:20;43.00;;;25.60;;
38262;SDS011;24054;50.128;19.730;2022-11-09T10:42:49;40.67;;;23.85;;
38262;SDS011;24054;50.128;19.730;2022-11-09T10:45:23;46.65;;;24.95;;
38262;SDS011;24054;50.128;19.730;2022-11-09T10:47:54;44.72;;;25.20;;
38262;SDS011;24054;50.128;19.730;2022-11-09T10:50:24;42.50;;;24.83;;
38262;SDS011;24054;50.128;19.730;2022-11-09T10:55:48;41.85;;;25.02;;
38262;SDS011;24054;50.128;19.730;2022-11-09T10:58:25;39.38;;;24.05;;
38262;SDS011;24054;50.128;19.730;2022-11-09T11:00:57;37.15;;;23.00;;
38262;SDS011;24054;50.128;19.730;2022-11-09T11:03:26;40.58;;;24.17;;
38262;SDS011;24054;50.128;19.730;2022-11-09T11:05:59;40.88;;;23.65;;
38262;SDS011;24054;50.128;19.730;2022-11-09T11:08:32;46.50;;;23.88;;
38262;SDS011;24054;50.128;19.730;2022-11-09T11:11:21;36.78;;;22.17;;
38262;SDS011;24054;50.128;19.730;2022-11-09T11:13:50;37.40;;;22.65;;
38262;SDS011;24054;50.128;19.730;2022-11-09T11:16:35;35.63;;;21.13;;
38262;SDS011;24054;50.128;19.730;2022-11-09T11:19:03;38.63;;;23.05;;
38262;SDS011;24054;50.128;19.730;2022-11-09T11:21:32;37.88;;;23.63;;
38262;SDS011;24054;50.128;19.730;2022-11-09T11:24:09;37.88;;;22.05;;
38262;SDS011;24054;50.128;19.730;2022-11-09T11:26:44;37.45;;;21.33;;
38262;SDS011;24054;50.128;19.730;2022-11-09T11:29:29;36.35;;;20.90;;
38262;SDS011;24054;50.128;19.730;2022-11-09T11:32:02;36.08;;;21.88;;
38262;SDS011;24054;50.128;19.730;2022-11-09T11:34:33;37.45;;;21.30;;
38262;SDS011;24054;50.128;19.730;2022-11-09T11:37:07;33.85;;;20.52;;
38262;SDS011;24054;50.128;19.730;2022-11-09T11:39:49;32.08;;;20.00;;
38262;SDS011;24054;50.128;19.730;2022-11-09T11:42:47;35.40;;;21.25;;
38262;SDS011;24054;50.128;19.730;2022-11-09T11:45:25;38.78;;;20.70;;
38262;SDS011;24054;50.128;19.730;2022-11-09T11:48:06;33.15;;;20.73;;
38262;SDS011;24054;50.128;19.730;2022-11-09T11:50:48;31.52;;;19.13;;
38262;SDS011;24054;50.128;19.730;2022-11-09T11:53:31;30.63;;;18.70;;
38262;SDS011;24054;50.128;19.730;2022-11-09T11:59:07;30.05;;;18.83;;
38262;SDS011;24054;50.128;19.730;2022-11-09T12:02:06;29.17;;;18.13;;
38262;SDS011;24054;50.128;19.730;2022-11-09T12:04:57;30.88;;;18.35;;
38262;SDS011;24054;50.128;19.730;2022-11-09T12:07:49;31.23;;;18.50;;
38262;SDS011;24054;50.128;19.730;2022-11-09T12:10:25;28.40;;;17.63;;
38262;SDS011;24054;50.128;19.730;2022-11-09T12:13:04;27.58;;;17.48;;
38262;SDS011;24054;50.128;19.730;2022-11-09T12:15:46;30.02;;;18.05;;
38262;SDS011;24054;50.128;19.730;2022-11-09T12:18:23;25.38;;;17.80;;
38262;SDS011;24054;50.128;19.730;2022-11-09T12:21:03;32.17;;;18.77;;
38262;SDS011;24054;50.128;19.730;2022-11-09T12:23:41;29.98;;;17.25;;
38262;SDS011;24054;50.128;19.730;2022-11-09T12:26:23;26.75;;;17.33;;
38262;SDS011;24054;50.128;19.730;2022-11-09T12:29:05;26.83;;;17.48;;
38262;SDS011;24054;50.128;19.730;2022-11-09T12:31:41;28.38;;;18.15;;
38262;SDS011;24054;50.128;19.730;2022-11-09T12:34:16;29.08;;;17.85;;
38262;SDS011;24054;50.128;19.730;2022-11-09T12:36:49;31.15;;;17.38;;
38262;SDS011;24054;50.128;19.730;2022-11-09T12:39:20;28.60;;;16.98;;
38262;SDS011;24054;50.128;19.730;2022-11-09T12:41:54;25.17;;;16.48;;
38262;SDS011;24054;50.128;19.730;2022-11-09T12:44:27;24.15;;;15.82;;
38262;SDS011;24054;50.128;19.730;2022-11-09T12:47:00;24.52;;;15.70;;
38262;SDS011;24054;50.128;19.730;2022-11-09T12:49:32;21.75;;;14.90;;
38262;SDS011;24054;50.128;19.730;2022-11-09T12:52:03;23.05;;;15.57;;
38262;SDS011;24054;50.128;19.730;2022-11-09T12:54:32;23.77;;;15.25;;
38262;SDS011;24054;50.128;19.730;2022-11-09T12:57:03;26.30;;;15.57;;
38262;SDS011;24054;50.128;19.730;2022-11-09T12:59:33;22.73;;;15.38;;
38262;SDS011;24054;50.128;19.730;2022-11-09T13:02:02;26.13;;;15.50;;
38262;SDS011;24054;50.128;19.730;2022-11-09T13:04:31;20.50;;;14.57;;
38262;SDS011;24054;50.128;19.730;2022-11-09T13:07:15;21.05;;;14.73;;
38262;SDS011;24054;50.128;19.730;2022-11-09T13:09:44;21.65;;;15.10;;
38262;SDS011;24054;50.128;19.730;2022-11-09T13:12:29;22.13;;;14.20;;
38262;SDS011;24054;50.128;19.730;2022-11-09T13:15:19;22.10;;;14.77;;
38262;SDS011;24054;50.128;19.730;2022-11-09T13:17:52;22.77;;;14.90;;
38262;SDS011;24054;50.128;19.730;2022-11-09T13:20:40;17.48;;;12.88;;
38262;SDS011;24054;50.128;19.730;2022-11-09T13:23:28;22.02;;;15.07;;
38262;SDS011;24054;50.128;19.730;2022-11-09T13:26:00;21.45;;;14.65;;
38262;SDS011;24054;50.128;19.730;2022-11-09T13:28:42;22.40;;;14.13;;
38262;SDS011;24054;50.128;19.730;2022-11-09T13:34:39;19.80;;;13.60;;
38262;SDS011;24054;50.128;19.730;2022-11-09T13:43:12;24.10;;;14.20;;
38262;SDS011;24054;50.128;19.730;2022-11-09T13:45:44;22.80;;;13.80;;
38262;SDS011;24054;50.128;19.730;2022-11-09T13:51:08;22.13;;;13.40;;
38262;SDS011;24054;50.128;19.730;2022-11-09T13:53:51;19.63;;;13.95;;
38262;SDS011;24054;50.128;19.730;2022-11-09T13:56:30;19.92;;;13.80;;
38262;SDS011;24054;50.128;19.730;2022-11-09T13:59:03;25.25;;;16.17;;
38262;SDS011;24054;50.128;19.730;2022-11-09T14:01:46;30.45;;;18.88;;
38262;SDS011;24054;50.128;19.730;2022-11-09T14:04:22;35.70;;;21.67;;
38262;SDS011;24054;50.128;19.730;2022-11-09T14:06:58;33.92;;;22.30;;
38262;SDS011;24054;50.128;19.730;2022-11-09T14:09:31;34.13;;;21.15;;
38262;SDS011;24054;50.128;19.730;2022-11-09T14:12:12;35.60;;;22.50;;
38262;SDS011;24054;50.128;19.730;2022-11-09T14:14:58;33.25;;;21.58;;
38262;SDS011;24054;50.128;19.730;2022-11-09T14:17:40;34.53;;;22.30;;
38262;SDS011;24054;50.128;19.730;2022-11-09T14:20:15;30.92;;;20.42;;
38262;SDS011;24054;50.128;19.730;2022-11-09T14:22:51;35.13;;;21.77;;
38262;SDS011;24054;50.128;19.730;2022-11-09T14:25:19;34.00;;;21.45;;
38262;SDS011;24054;50.128;19.730;2022-11-09T14:27:48;32.33;;;21.02;;
38262;SDS011;24054;50.128;19.730;2022-11-09T14:30:22;32.10;;;21.77;;
38262;SDS011;24054;50.128;19.730;2022-11-09T14:32:52;35.83;;;21.80;;
38262;SDS011;24054;50.128;19.730;2022-11-09T14:35:21;33.83;;;20.77;;
38262;SDS011;24054;50.128;19.730;2022-11-09T14:37:51;30.77;;;20.23;;
38262;SDS011;24054;50.128;19.730;2022-11-09T14:42:49;31.45;;;20.35;;
38262;SDS011;24054;50.128;19.730;2022-11-09T14:45:19;33.53;;;19.98;;
38262;SDS011;24054;50.128;19.730;2022-11-09T14:47:49;28.55;;;20.52;;
38262;SDS011;24054;50.128;19.730;2022-11-09T14:50:23;33.55;;;21.38;;
38262;SDS011;24054;50.128;19.730;2022-11-09T14:52:52;30.35;;;20.65;;
38262;SDS011;24054;50.128;19.730;2022-11-09T14:55:21;32.25;;;20.75;;
38262;SDS011;24054;50.128;19.730;2022-11-09T14:57:50;32.58;;;20.05;;